createdAt,value
2022-12-14T00:01:11.156Z,87.00
2022-12-14T00:03:14.602Z,88.09
2022-12-14T00:05:19.782Z,86.92
2022-12-14T00:07:22.545Z,86.50
2022-12-14T00:09:25.221Z,87.08
2022-12-14T00:11:28.535Z,87.97
2022-12-14T00:13:32.588Z,87.50
2022-12-14T00:15:37.692Z,87.23
2022-12-14T00:17:40.796Z,86.72
2022-12-14T00:19:43.504Z,86.35
2022-12-14T00:21:51.580Z,86.34
2022-12-14T00:23:55.342Z,86.83
2022-12-14T00:25:58.087Z,87.21
2022-12-14T00:28:00.813Z,87.75
2022-12-14T00:30:05.466Z,88.32
2022-12-14T00:32:08.186Z,87.71
2022-12-14T00:34:10.840Z,87.29
2022-12-14T00:36:14.006Z,88.02
2022-12-14T00:38:16.688Z,88.24
2022-12-14T00:40:19.450Z,88.03
2022-12-14T00:42:22.055Z,88.68
2022-12-14T00:44:24.650Z,88.59
2022-12-14T00:46:28.724Z,89.23
2022-12-14T00:48:32.574Z,89.03
2022-12-14T00:50:35.706Z,89.35
2022-12-14T00:52:38.350Z,88.87
2022-12-14T00:54:41.054Z,89.31
2022-12-14T00:56:43.784Z,89.81
2022-12-14T00:58:51.785Z,89.34
2022-12-14T01:01:00.493Z,89.70
2022-12-14T01:03:05.556Z,89.28
2022-12-14T01:05:09.074Z,89.70
2022-12-14T01:07:11.754Z,89.51
2022-12-14T01:09:14.878Z,89.02
2022-12-14T01:11:17.572Z,89.36
2022-12-14T01:13:20.157Z,90.13
2022-12-14T01:15:22.884Z,90.30
2022-12-14T01:17:25.507Z,89.73
2022-12-14T01:19:29.606Z,88.71
2022-12-14T01:21:32.864Z,89.33
2022-12-14T01:23:35.544Z,88.84
2022-12-14T01:25:38.256Z,88.76
2022-12-14T01:27:40.950Z,88.87
2022-12-14T01:29:43.687Z,88.90
2022-12-14T01:31:48.591Z,88.44
2022-12-14T01:33:51.642Z,88.30
2022-12-14T01:35:55.612Z,88.53
2022-12-14T01:37:58.387Z,88.73
2022-12-14T01:40:01.090Z,88.14
2022-12-14T01:42:03.855Z,88.00
2022-12-14T01:44:39.670Z,89.03
2022-12-14T01:46:46.569Z,89.05
2022-12-14T01:48:52.165Z,88.70
2022-12-14T01:50:56.202Z,88.76
2022-12-14T01:53:02.462Z,88.44
2022-12-14T01:55:08.601Z,87.88
2022-12-14T01:57:12.310Z,88.46
2022-12-14T01:59:19.108Z,88.95
2022-12-14T02:01:21.815Z,88.90
2022-12-14T02:03:28.418Z,88.50
2022-12-14T02:05:34.468Z,88.73
2022-12-14T02:07:39.900Z,88.79
2022-12-14T02:09:45.174Z,88.44
2022-12-14T02:11:56.951Z,88.49
2022-12-14T02:13:59.601Z,88.56
2022-12-14T02:16:02.401Z,87.94
2022-12-14T02:18:08.983Z,88.44
2022-12-14T02:20:12.964Z,89.00
2022-12-14T02:22:39.999Z,88.62
2022-12-14T02:25:01.487Z,89.21
2022-12-14T02:27:13.551Z,89.76
2022-12-14T02:29:45.275Z,88.70
2022-12-14T02:31:55.484Z,88.29
2022-12-14T02:34:06.284Z,88.43
2022-12-14T02:36:18.784Z,88.92
2022-12-14T02:38:36.287Z,90.14
2022-12-14T02:40:45.970Z,90.58
2022-12-14T02:43:02.885Z,90.40
2022-12-14T02:45:13.866Z,90.25
2022-12-14T02:47:24.297Z,91.56
2022-12-14T02:49:43.111Z,90.68
2022-12-14T02:51:57.098Z,91.11
2022-12-14T02:54:03.373Z,91.40
2022-12-14T02:56:10.526Z,92.07
2022-12-14T02:58:15.311Z,91.83
2022-12-14T03:00:20.494Z,92.54
2022-12-14T03:02:24.569Z,92.61
2022-12-14T03:04:27.257Z,92.64
2022-12-14T03:06:30.222Z,93.20
2022-12-14T03:08:35.493Z,93.84
2022-12-14T03:10:46.140Z,93.63
2022-12-14T03:12:55.539Z,94.09
2022-12-14T03:15:00.564Z,95.00
2022-12-14T03:17:15.185Z,96.11
2022-12-14T03:19:24.663Z,96.01
2022-12-14T03:21:31.048Z,96.18
2022-12-14T03:23:37.336Z,96.30
2022-12-14T03:25:46.117Z,97.11
2022-12-14T03:27:56.437Z,99.05
2022-12-14T03:30:03.260Z,98.88
2022-12-14T03:32:11.396Z,99.05
2022-12-14T03:34:16.819Z,100.00
2022-12-14T03:36:26.622Z,100.00
2022-12-14T03:38:35.045Z,100.00
2022-12-14T03:40:43.392Z,100.00
2022-12-14T03:42:58.222Z,100.00
2022-12-14T03:45:05.502Z,100.00
2022-12-14T03:47:22.238Z,100.00
2022-12-14T03:49:35.843Z,100.00
2022-12-14T03:51:47.488Z,100.00
2022-12-14T03:53:57.548Z,100.00
2022-12-14T03:56:05.127Z,100.00
2022-12-14T03:58:29.856Z,100.00
2022-12-14T04:00:38.156Z,100.00
2022-12-14T04:02:48.816Z,100.00
2022-12-14T04:04:58.015Z,100.00
2022-12-14T04:07:09.463Z,100.00
2022-12-14T04:09:24.634Z,100.00
2022-12-14T04:11:49.887Z,100.00
2022-12-14T04:14:15.719Z,100.00
2022-12-14T04:16:43.162Z,100.00
2022-12-14T04:19:00.887Z,100.00
2022-12-14T04:21:10.261Z,100.00
2022-12-14T04:23:41.055Z,100.00
2022-12-14T04:26:04.873Z,100.00
2022-12-14T04:28:33.107Z,100.00
2022-12-14T04:30:39.363Z,100.00
2022-12-14T04:32:46.855Z,100.00
2022-12-14T04:34:55.282Z,100.00
2022-12-14T04:37:01.042Z,100.00
2022-12-14T04:39:07.375Z,100.00
2022-12-14T04:41:15.079Z,100.00
2022-12-14T04:43:21.885Z,100.00
2022-12-14T04:45:29.185Z,100.00
2022-12-14T04:47:44.761Z,100.00
2022-12-14T04:49:53.381Z,100.00
2022-12-14T04:52:05.577Z,100.00
2022-12-14T04:54:13.898Z,100.00
2022-12-14T04:56:24.211Z,100.00
2022-12-14T04:58:30.574Z,100.00
2022-12-14T05:00:38.919Z,100.00
2022-12-14T05:02:54.390Z,100.00
2022-12-14T05:05:09.520Z,100.00
2022-12-14T05:07:20.688Z,100.00
2022-12-14T05:09:28.314Z,100.00
2022-12-14T05:14:04.692Z,100.00
2022-12-14T05:16:08.339Z,100.00
2022-12-14T05:18:11.799Z,100.00
2022-12-14T05:20:17.878Z,100.00
2022-12-14T05:22:20.708Z,100.00
2022-12-14T05:24:23.412Z,100.00
2022-12-14T05:26:26.130Z,100.00
2022-12-14T05:28:28.931Z,100.00
2022-12-14T05:30:31.690Z,100.00
2022-12-14T05:32:34.483Z,100.00
2022-12-14T05:34:37.112Z,100.00
2022-12-14T05:36:41.117Z,100.00
2022-12-14T05:38:43.785Z,100.00
2022-12-14T05:40:46.707Z,100.00
2022-12-14T05:42:55.260Z,100.00
2022-12-14T05:44:58.598Z,100.00
2022-12-14T05:47:01.308Z,100.00
2022-12-14T05:49:04.013Z,100.00
2022-12-14T05:51:08.451Z,100.00
2022-12-14T05:53:12.475Z,100.00
2022-12-14T05:55:15.223Z,100.00
2022-12-14T05:57:17.992Z,100.00
2022-12-14T05:59:20.637Z,100.00
2022-12-14T06:01:23.353Z,100.00
2022-12-14T06:03:26.588Z,100.00
2022-12-14T06:05:29.413Z,100.00
2022-12-14T06:07:32.140Z,100.00
2022-12-14T06:09:36.152Z,100.00
2022-12-14T06:11:40.460Z,100.00
2022-12-14T06:13:44.395Z,100.00
2022-12-14T06:15:47.020Z,100.00
2022-12-14T06:17:50.395Z,100.00
2022-12-14T06:19:53.099Z,100.00
2022-12-14T06:21:56.796Z,100.00
2022-12-14T06:24:00.403Z,100.00
2022-12-14T06:26:04.702Z,100.00
2022-12-14T06:28:07.363Z,100.00
2022-12-14T06:30:12.145Z,100.00
2022-12-14T06:32:14.941Z,100.00
2022-12-14T06:34:18.303Z,100.00
2022-12-14T06:36:23.935Z,100.00
2022-12-14T06:38:26.775Z,100.00
2022-12-14T06:40:29.469Z,100.00
2022-12-14T06:42:33.647Z,100.00
2022-12-14T06:44:37.421Z,100.00
2022-12-14T06:46:40.809Z,100.00
2022-12-14T06:48:43.862Z,100.00
2022-12-14T06:50:46.538Z,100.00
2022-12-14T06:52:50.206Z,100.00
2022-12-14T06:54:52.848Z,100.00
2022-12-14T06:56:55.495Z,100.00
2022-12-14T06:58:59.552Z,100.00
2022-12-14T07:01:03.652Z,100.00
2022-12-14T07:03:06.533Z,100.00
2022-12-14T07:05:09.747Z,100.00
2022-12-14T07:07:12.427Z,100.00
2022-12-14T07:09:15.660Z,100.00
2022-12-14T07:11:18.643Z,100.00
2022-12-14T07:13:22.081Z,100.00
2022-12-14T07:15:26.126Z,100.00
2022-12-14T07:17:28.885Z,100.00
2022-12-14T07:19:31.620Z,100.00
2022-12-14T07:21:34.508Z,100.00
2022-12-14T07:23:38.781Z,100.00
2022-12-14T07:25:41.467Z,100.00
2022-12-14T07:27:44.151Z,100.00
2022-12-14T07:29:46.914Z,100.00
2022-12-14T07:31:51.023Z,100.00
2022-12-14T07:33:54.382Z,100.00
2022-12-14T07:36:02.904Z,100.00
2022-12-14T07:38:05.604Z,100.00
2022-12-14T07:40:09.996Z,100.00
2022-12-14T07:42:12.927Z,100.00
2022-12-14T07:44:15.772Z,100.00
2022-12-14T07:46:20.438Z,100.00
2022-12-14T07:48:24.493Z,100.00
2022-12-14T07:50:27.147Z,100.00
2022-12-14T07:52:35.717Z,100.00
2022-12-14T07:54:40.035Z,100.00
2022-12-14T07:56:44.671Z,100.00
2022-12-14T07:58:47.542Z,100.00
2022-12-14T08:00:50.172Z,100.00
2022-12-14T08:02:56.015Z,100.00
2022-12-14T08:04:59.991Z,100.00
2022-12-14T08:07:02.695Z,100.00
2022-12-14T08:09:06.426Z,100.00
2022-12-14T08:11:10.116Z,100.00
2022-12-14T08:13:12.747Z,100.00
2022-12-14T08:15:15.422Z,100.00
2022-12-14T08:17:18.036Z,100.00
2022-12-14T08:19:21.387Z,100.00
2022-12-14T08:21:26.545Z,100.00
2022-12-14T08:23:29.542Z,100.00
2022-12-14T08:25:32.474Z,100.00
2022-12-14T08:27:35.112Z,100.00
2022-12-14T08:29:37.845Z,100.00
2022-12-14T08:31:40.665Z,100.00
2022-12-14T08:33:45.211Z,100.00
2022-12-14T08:35:47.912Z,100.00
2022-12-14T08:37:53.192Z,100.00
2022-12-14T08:39:55.917Z,100.00
2022-12-14T08:41:58.594Z,100.00
2022-12-14T08:44:03.551Z,100.00
2022-12-14T08:46:07.055Z,100.00
2022-12-14T08:48:10.037Z,100.00
2022-12-14T08:50:12.733Z,100.00
2022-12-14T08:52:16.318Z,100.00
2022-12-14T08:54:20.354Z,100.00
2022-12-14T08:56:25.588Z,100.00
2022-12-14T08:58:28.251Z,100.00
2022-12-14T09:00:31.032Z,100.00
2022-12-14T09:02:33.878Z,100.00
2022-12-14T09:04:36.680Z,100.00
2022-12-14T09:06:40.521Z,100.00
2022-12-14T09:08:43.591Z,100.00
2022-12-14T09:10:51.651Z,100.00
2022-12-14T09:12:54.308Z,100.00
2022-12-14T09:14:57.105Z,100.00
2022-12-14T09:16:59.904Z,100.00
2022-12-14T09:19:02.658Z,100.00
2022-12-14T09:21:05.768Z,100.00
2022-12-14T09:23:08.362Z,100.00
2022-12-14T09:25:11.423Z,100.00
2022-12-14T09:27:15.390Z,100.00
2022-12-14T09:29:19.754Z,100.00
2022-12-14T09:31:25.083Z,100.00
2022-12-14T09:33:29.424Z,100.00
2022-12-14T09:35:32.431Z,100.00
2022-12-14T09:37:35.491Z,100.00
2022-12-14T09:39:38.367Z,100.00
2022-12-14T09:41:53.190Z,100.00
2022-12-14T09:44:06.387Z,100.00
2022-12-14T09:46:32.999Z,100.00
2022-12-14T09:48:36.171Z,100.00
2022-12-14T09:50:40.721Z,100.00
2022-12-14T09:52:46.705Z,100.00
2022-12-14T09:54:50.256Z,100.00
2022-12-14T09:56:54.163Z,100.00
2022-12-14T09:58:59.351Z,100.00
2022-12-14T10:01:39.995Z,100.00
2022-12-14T10:03:55.414Z,100.00
2022-12-14T10:06:16.691Z,100.00
2022-12-14T10:08:24.297Z,100.00
2022-12-14T10:10:33.796Z,100.00
2022-12-14T10:12:51.483Z,100.00
2022-12-14T10:15:05.872Z,100.00
2022-12-14T10:17:16.861Z,100.00
2022-12-14T10:19:33.289Z,100.00
2022-12-14T10:21:46.208Z,100.00
2022-12-14T10:23:55.822Z,100.00
2022-12-14T10:26:03.410Z,100.00
2022-12-14T10:28:14.381Z,100.00
2022-12-14T10:30:20.098Z,100.00
2022-12-14T10:32:31.473Z,100.00
2022-12-14T10:34:35.743Z,100.00
2022-12-14T10:36:45.803Z,100.00
2022-12-14T10:38:57.208Z,100.00
2022-12-14T10:41:06.779Z,100.00
2022-12-14T10:43:30.322Z,100.00
2022-12-14T10:45:42.516Z,100.00
2022-12-14T10:47:50.774Z,100.00
2022-12-14T10:50:02.563Z,100.00
2022-12-14T10:52:12.326Z,100.00
2022-12-14T10:54:26.422Z,100.00
2022-12-14T10:56:33.978Z,100.00
2022-12-14T10:58:36.713Z,100.00
2022-12-14T11:00:39.729Z,100.00
2022-12-14T11:02:45.004Z,100.00
2022-12-14T11:04:56.437Z,100.00
2022-12-14T11:07:01.136Z,100.00
2022-12-14T11:09:21.168Z,100.00
2022-12-14T11:11:25.619Z,100.00
2022-12-14T11:13:28.408Z,100.00
2022-12-14T11:15:34.458Z,100.00
2022-12-14T11:17:39.023Z,100.00
2022-12-14T11:19:41.881Z,100.00
2022-12-14T11:21:49.802Z,100.00
2022-12-14T11:23:55.556Z,100.00
2022-12-14T11:26:00.270Z,100.00
2022-12-14T11:28:06.863Z,100.00
2022-12-14T11:30:17.484Z,100.00
2022-12-14T11:32:24.814Z,100.00
2022-12-14T11:34:34.491Z,100.00
2022-12-14T11:36:39.596Z,100.00
2022-12-14T11:38:43.635Z,100.00
2022-12-14T11:40:47.043Z,100.00
2022-12-14T11:42:51.201Z,100.00
2022-12-14T11:44:55.145Z,100.00
2022-12-14T11:47:03.642Z,100.00
2022-12-14T11:49:19.330Z,100.00
2022-12-14T11:51:22.042Z,100.00
2022-12-14T11:53:24.737Z,100.00
2022-12-14T11:55:29.889Z,100.00
2022-12-14T11:57:36.069Z,100.00
2022-12-14T11:59:42.053Z,100.00
2022-12-14T12:01:45.293Z,100.00
2022-12-14T12:03:50.712Z,100.00
2022-12-14T12:05:55.090Z,100.00
2022-12-14T12:07:59.939Z,100.00
2022-12-14T12:10:07.771Z,100.00
2022-12-14T12:12:19.218Z,100.00
2022-12-14T12:14:30.621Z,100.00
2022-12-14T12:16:35.450Z,100.00
2022-12-14T12:18:46.494Z,100.00
2022-12-14T12:20:54.985Z,100.00
2022-12-14T12:23:05.706Z,100.00
2022-12-14T12:25:25.936Z,100.00
2022-12-14T12:27:33.153Z,100.00
2022-12-14T12:29:40.405Z,100.00
2022-12-14T12:31:49.353Z,100.00
2022-12-14T12:33:59.079Z,100.00
2022-12-14T12:36:05.660Z,100.00
2022-12-14T12:38:14.925Z,100.00
2022-12-14T12:40:20.649Z,100.00
2022-12-14T12:42:29.745Z,100.00
2022-12-14T12:44:50.211Z,100.00
2022-12-14T12:49:25.308Z,100.00
2022-12-14T12:51:32.190Z,100.00
2022-12-14T12:53:39.621Z,100.00
2022-12-14T12:55:47.211Z,100.00
2022-12-14T12:57:54.561Z,100.00
2022-12-14T12:59:59.991Z,100.00
2022-12-14T13:02:17.449Z,100.00
2022-12-14T13:04:28.863Z,100.00
2022-12-14T13:06:35.722Z,100.00
2022-12-14T13:08:41.105Z,100.00
2022-12-14T13:11:17.234Z,100.00
2022-12-14T13:13:14.663Z,100.00
2022-12-14T13:15:24.491Z,100.00
2022-12-14T13:17:35.355Z,100.00
2022-12-14T13:19:51.710Z,100.00
2022-12-14T13:21:59.204Z,100.00
2022-12-14T13:24:12.189Z,100.00
2022-12-14T13:26:56.749Z,100.00
2022-12-14T13:29:05.253Z,100.00
2022-12-14T13:31:18.079Z,100.00
2022-12-14T13:33:45.735Z,100.00
2022-12-14T13:36:20.837Z,100.00
2022-12-14T13:38:41.449Z,100.00
2022-12-14T13:41:06.164Z,100.00
2022-12-14T13:43:30.131Z,100.00
2022-12-14T13:45:38.774Z,100.00
2022-12-14T13:47:45.105Z,100.00
2022-12-14T13:50:18.438Z,100.00
2022-12-14T13:52:31.462Z,100.00
2022-12-14T13:54:37.076Z,100.00
2022-12-14T13:56:40.636Z,100.00
2022-12-14T13:58:46.340Z,100.00
2022-12-14T14:00:58.304Z,100.00
2022-12-14T14:03:02.452Z,100.00
2022-12-14T14:05:45.889Z,100.00
2022-12-14T14:07:54.274Z,100.00
2022-12-14T14:10:04.200Z,100.00
2022-12-14T14:12:35.770Z,100.00
2022-12-14T14:14:51.786Z,100.00
2022-12-14T14:16:57.914Z,100.00
2022-12-14T14:19:05.565Z,100.00
2022-12-14T14:21:32.886Z,100.00
2022-12-14T14:23:39.076Z,100.00
2022-12-14T14:25:46.888Z,100.00
2022-12-14T14:27:56.142Z,100.00
2022-12-14T14:29:59.231Z,100.00
2022-12-14T14:32:03.601Z,100.00
2022-12-14T14:34:06.326Z,100.00
2022-12-14T14:36:11.772Z,100.00
2022-12-14T14:38:27.324Z,100.00
2022-12-14T14:41:06.638Z,100.00
2022-12-14T14:43:05.524Z,100.00
2022-12-14T14:45:23.979Z,100.00
2022-12-14T14:47:31.101Z,100.00
2022-12-14T14:49:39.375Z,100.00
2022-12-14T14:51:42.078Z,100.00
2022-12-14T14:53:45.434Z,100.00
2022-12-14T14:56:04.690Z,100.00
2022-12-14T14:58:22.519Z,100.00
2022-12-14T15:00:25.720Z,100.00
2022-12-14T15:02:34.300Z,100.00
2022-12-14T15:04:45.508Z,100.00
2022-12-14T15:06:51.875Z,100.00
2022-12-14T15:09:00.087Z,100.00
2022-12-14T15:11:06.095Z,100.00
2022-12-14T15:13:17.866Z,100.00
2022-12-14T15:15:27.926Z,100.00
2022-12-14T15:17:30.881Z,100.00
2022-12-14T15:19:35.990Z,100.00
2022-12-14T15:21:39.274Z,100.00
2022-12-14T15:23:49.239Z,100.00
2022-12-14T15:26:01.327Z,100.00
2022-12-14T15:28:08.715Z,100.00
2022-12-14T15:30:20.882Z,100.00
2022-12-14T15:32:26.196Z,100.00
2022-12-14T15:34:29.206Z,100.00
2022-12-14T15:36:35.417Z,100.00
2022-12-14T15:38:38.390Z,100.00
2022-12-14T15:40:41.220Z,100.00
2022-12-14T15:42:48.215Z,100.00
2022-12-14T15:44:51.414Z,100.00
2022-12-14T15:46:55.518Z,100.00
2022-12-14T15:49:01.288Z,100.00
2022-12-14T15:51:06.930Z,100.00
2022-12-14T15:53:14.555Z,100.00
2022-12-14T15:55:33.209Z,100.00
2022-12-14T15:57:39.211Z,100.00
2022-12-14T15:59:45.002Z,100.00
2022-12-14T16:02:04.755Z,100.00
2022-12-14T16:04:16.220Z,100.00
2022-12-14T16:06:19.877Z,100.00
2022-12-14T16:08:23.465Z,100.00
2022-12-14T16:10:31.820Z,100.00
2022-12-14T16:12:45.034Z,100.00
2022-12-14T16:14:54.162Z,100.00
2022-12-14T16:16:57.387Z,100.00
2022-12-14T16:19:20.401Z,100.00
2022-12-14T16:21:29.982Z,100.00
2022-12-14T16:23:39.196Z,100.00
2022-12-14T16:25:52.414Z,100.00
2022-12-14T16:27:55.676Z,100.00
2022-12-14T16:30:22.898Z,100.00
2022-12-14T16:32:25.663Z,100.00
2022-12-14T16:34:28.646Z,100.00
2022-12-14T16:36:36.571Z,100.00
2022-12-14T16:38:42.597Z,100.00
2022-12-14T16:40:54.096Z,100.00
2022-12-14T16:42:56.848Z,100.00
2022-12-14T16:44:59.610Z,100.00
2022-12-14T16:47:26.195Z,100.00
2022-12-14T16:49:33.301Z,100.00
2022-12-14T16:54:04.904Z,100.00
2022-12-14T16:56:17.178Z,100.00
2022-12-14T16:58:19.855Z,100.00
2022-12-14T17:00:26.344Z,100.00
2022-12-14T17:02:33.267Z,100.00
2022-12-14T17:04:38.666Z,100.00
2022-12-14T17:06:48.563Z,100.00
2022-12-14T17:08:51.643Z,100.00
2022-12-14T17:10:55.134Z,100.00
2022-12-14T17:12:58.913Z,100.00
2022-12-14T17:15:04.409Z,100.00
2022-12-14T17:17:07.446Z,100.00
2022-12-14T17:19:18.778Z,100.00
2022-12-14T17:21:26.186Z,100.00
2022-12-14T17:23:30.977Z,100.00
2022-12-14T17:25:34.213Z,100.00
2022-12-14T17:27:37.012Z,100.00
2022-12-14T17:29:39.668Z,100.00
2022-12-14T17:31:50.082Z,100.00
2022-12-14T17:33:54.796Z,100.00
2022-12-14T17:35:57.550Z,100.00
2022-12-14T17:38:00.471Z,100.00
2022-12-14T17:40:05.775Z,100.00
2022-12-14T17:42:12.026Z,100.00
2022-12-14T17:44:16.213Z,100.00
2022-12-14T17:46:18.917Z,100.00
2022-12-14T17:48:22.229Z,100.00
2022-12-14T17:50:25.901Z,100.00
2022-12-14T17:52:31.681Z,100.00
2022-12-14T17:54:34.853Z,100.00
2022-12-14T17:56:38.867Z,100.00
2022-12-14T17:58:45.408Z,100.00
2022-12-14T18:01:04.613Z,100.00
2022-12-14T18:03:07.671Z,100.00
2022-12-14T18:05:18.591Z,100.00
2022-12-14T18:07:21.239Z,100.00
2022-12-14T18:09:23.894Z,100.00
2022-12-14T18:11:27.938Z,100.00
2022-12-14T18:13:32.604Z,100.00
2022-12-14T18:15:38.942Z,100.00
2022-12-14T18:17:41.736Z,100.00
2022-12-14T18:19:44.835Z,100.00
2022-12-14T18:21:50.563Z,100.00
2022-12-14T18:23:53.709Z,100.00
2022-12-14T18:25:58.969Z,100.00
2022-12-14T18:28:02.800Z,100.00
2022-12-14T18:30:08.511Z,100.00
2022-12-14T18:32:14.795Z,100.00
2022-12-14T18:34:17.473Z,100.00
2022-12-14T18:36:21.586Z,100.00
2022-12-14T18:38:24.698Z,100.00
2022-12-14T18:40:29.624Z,100.00
2022-12-14T18:42:32.282Z,100.00
2022-12-14T18:44:34.981Z,100.00
2022-12-14T18:46:39.291Z,100.00
2022-12-14T18:48:43.195Z,100.00
2022-12-14T18:50:46.037Z,100.00
2022-12-14T18:52:52.758Z,100.00
2022-12-14T18:54:55.428Z,100.00
2022-12-14T18:56:58.033Z,100.00
2022-12-14T18:59:01.416Z,100.00
2022-12-14T19:01:04.422Z,100.00
2022-12-14T19:03:08.528Z,100.00
2022-12-14T19:05:11.767Z,100.00
2022-12-14T19:07:15.670Z,100.00
2022-12-14T19:09:18.447Z,100.00
2022-12-14T19:11:30.331Z,100.00
2022-12-14T19:13:33.344Z,100.00
2022-12-14T19:15:36.852Z,100.00
2022-12-14T19:17:39.655Z,100.00
2022-12-14T19:19:44.723Z,100.00
2022-12-14T19:21:47.470Z,100.00
2022-12-14T19:23:50.242Z,100.00
2022-12-14T19:25:52.848Z,100.00
2022-12-14T19:30:22.785Z,100.00
2022-12-14T19:32:25.793Z,100.00
2022-12-14T19:34:28.446Z,100.00
2022-12-14T19:36:32.467Z,100.00
2022-12-14T19:38:35.679Z,100.00
2022-12-14T19:40:38.328Z,100.00
2022-12-14T19:42:41.221Z,100.00
2022-12-14T19:44:44.094Z,100.00
2022-12-14T19:46:51.944Z,100.00
2022-12-14T19:48:55.653Z,100.00
2022-12-14T19:50:58.313Z,100.00
2022-12-14T19:53:02.329Z,100.00
2022-12-14T19:55:05.450Z,100.00
2022-12-14T19:57:08.504Z,100.00
2022-12-14T19:59:11.243Z,100.00
2022-12-14T20:01:16.231Z,100.00
2022-12-14T20:03:19.131Z,100.00
2022-12-14T20:05:22.253Z,100.00
2022-12-14T20:07:24.902Z,100.00
2022-12-14T20:09:28.989Z,100.00
2022-12-14T20:11:31.609Z,100.00
2022-12-14T20:13:34.767Z,100.00
2022-12-14T20:15:38.769Z,100.00
2022-12-14T20:17:41.433Z,100.00
2022-12-14T20:19:44.536Z,100.00
2022-12-14T20:21:47.176Z,100.00
2022-12-14T20:23:50.158Z,100.00
2022-12-14T20:25:54.204Z,100.00
2022-12-14T20:27:56.860Z,100.00
2022-12-14T20:29:59.668Z,100.00
2022-12-14T20:32:02.369Z,100.00
2022-12-14T20:34:06.499Z,100.00
2022-12-14T20:36:10.055Z,100.00
2022-12-14T20:38:12.813Z,100.00
2022-12-14T20:40:15.614Z,100.00
2022-12-14T20:42:19.572Z,100.00
2022-12-14T20:44:22.303Z,100.00
2022-12-14T20:46:28.479Z,100.00
2022-12-14T20:48:31.879Z,100.00
2022-12-14T20:50:35.104Z,100.00
2022-12-14T20:52:38.284Z,100.00
2022-12-14T20:54:40.884Z,100.00
2022-12-14T20:56:44.924Z,100.00
2022-12-14T20:58:53.585Z,100.00
2022-12-14T21:00:56.293Z,100.00
2022-12-14T21:02:59.077Z,100.00
2022-12-14T21:05:01.856Z,100.00
2022-12-14T21:07:04.469Z,100.00
2022-12-14T21:09:11.529Z,100.00
2022-12-14T21:11:27.974Z,100.00
2022-12-14T21:13:31.105Z,100.00
2022-12-14T21:15:36.272Z,100.00
2022-12-14T21:17:39.067Z,100.00
2022-12-14T21:19:42.054Z,100.00
2022-12-14T21:21:51.470Z,100.00
2022-12-14T21:23:56.148Z,100.00
2022-12-14T21:26:02.483Z,100.00
2022-12-14T21:28:05.526Z,100.00
2022-12-14T21:30:10.441Z,100.00
2022-12-14T21:32:15.034Z,100.00
2022-12-14T21:34:20.217Z,100.00
2022-12-14T21:36:23.179Z,100.00
2022-12-14T21:38:25.944Z,100.00
2022-12-14T21:40:46.137Z,100.00
2022-12-14T21:42:50.437Z,100.00
2022-12-14T21:44:54.302Z,100.00
2022-12-14T21:46:57.335Z,100.00
2022-12-14T21:49:01.514Z,100.00
2022-12-14T21:51:07.406Z,100.00
2022-12-14T21:53:10.086Z,100.00
2022-12-14T21:55:13.081Z,100.00
2022-12-14T21:57:34.816Z,100.00
2022-12-14T21:59:39.919Z,100.00
2022-12-14T22:01:43.366Z,100.00
2022-12-14T22:03:46.155Z,100.00
2022-12-14T22:05:53.603Z,100.00
2022-12-14T22:07:56.631Z,100.00
2022-12-14T22:09:59.434Z,100.00
2022-12-14T22:12:02.104Z,100.00
2022-12-14T22:14:05.419Z,100.00
2022-12-14T22:16:08.745Z,100.00
2022-12-14T22:18:12.334Z,100.00
2022-12-14T22:20:15.417Z,100.00
2022-12-14T22:22:19.477Z,100.00
2022-12-14T22:24:24.091Z,100.00
2022-12-14T22:26:26.736Z,100.00
2022-12-14T22:28:29.419Z,100.00
2022-12-14T22:30:32.206Z,100.00
2022-12-14T22:32:34.866Z,100.00
2022-12-14T22:34:37.632Z,100.00
2022-12-14T22:36:40.285Z,100.00
2022-12-14T22:38:44.803Z,100.00
2022-12-14T22:40:47.553Z,100.00
2022-12-14T22:42:50.220Z,100.00
2022-12-14T22:44:53.210Z,100.00
2022-12-14T22:46:55.923Z,100.00
2022-12-14T22:48:58.654Z,100.00
2022-12-14T22:51:02.218Z,100.00
2022-12-14T22:53:05.026Z,100.00
2022-12-14T22:55:09.965Z,100.00
2022-12-14T22:57:17.974Z,100.00
2022-12-14T22:59:25.039Z,100.00
2022-12-14T23:01:28.266Z,100.00
2022-12-14T23:03:31.651Z,100.00
2022-12-14T23:05:34.696Z,100.00
2022-12-14T23:07:37.778Z,100.00
2022-12-14T23:09:58.058Z,100.00
2022-12-14T23:12:21.859Z,100.00
2022-12-14T23:14:42.457Z,100.00
2022-12-14T23:17:02.805Z,100.00
2022-12-14T23:19:22.985Z,100.00
2022-12-14T23:21:43.334Z,100.00
2022-12-14T23:24:04.850Z,100.00
2022-12-14T23:26:25.231Z,100.00
2022-12-14T23:28:50.032Z,100.00
2022-12-14T23:31:10.779Z,100.00
2022-12-14T23:33:31.487Z,100.00
2022-12-14T23:35:51.892Z,100.00
2022-12-14T23:38:12.240Z,100.00
2022-12-14T23:40:32.920Z,100.00
2022-12-14T23:42:53.226Z,100.00
2022-12-14T23:45:14.711Z,100.00
2022-12-14T23:47:34.959Z,100.00
2022-12-14T23:49:55.138Z,100.00
2022-12-14T23:52:15.524Z,100.00
2022-12-14T23:54:35.985Z,100.00
2022-12-14T23:56:56.193Z,100.00
2022-12-14T23:59:18.682Z,100.00
